createdAt,value
2024-02-08T00:00:16.364Z,3.03
2024-02-08T00:05:38.546Z,3.02
2024-02-08T00:10:50.944Z,3.00
2024-02-08T00:15:59.514Z,2.95
2024-02-08T00:21:09.817Z,2.92
2024-02-08T00:26:49.489Z,2.89
2024-02-08T00:32:10.585Z,2.81
2024-02-08T00:37:12.887Z,2.72
2024-02-08T00:42:27.978Z,2.70
2024-02-08T00:47:33.035Z,2.70
2024-02-08T00:52:46.671Z,2.70
2024-02-08T00:58:08.914Z,2.68
2024-02-08T01:03:11.528Z,2.65
2024-02-08T01:08:13.929Z,2.54
2024-02-08T01:13:19.232Z,2.48
2024-02-08T01:18:21.484Z,2.44
2024-02-08T01:23:28.702Z,2.43
2024-02-08T01:28:33.569Z,2.42
2024-02-08T01:33:38.307Z,2.34
2024-02-08T01:39:05.549Z,2.27
2024-02-08T01:44:55.705Z,2.21
2024-02-08T01:50:35.606Z,2.15
2024-02-08T01:55:40.955Z,2.11
2024-02-08T02:00:49.966Z,2.06
2024-02-08T02:05:54.495Z,1.99
2024-02-08T02:11:40.684Z,1.93
2024-02-08T02:17:03.117Z,1.89
2024-02-08T02:22:34.443Z,1.86
2024-02-08T02:28:04.319Z,1.81
2024-02-08T02:33:26.948Z,1.77
2024-02-08T02:38:29.821Z,1.77
2024-02-08T02:43:34.968Z,1.77
2024-02-08T02:49:10.134Z,1.77
2024-02-08T02:54:23.051Z,1.75
2024-02-08T02:59:31.003Z,1.72
2024-02-08T03:05:13.617Z,1.73
2024-02-08T03:10:35.058Z,1.70
2024-02-08T03:15:39.485Z,1.70
2024-02-08T03:20:47.543Z,1.68
2024-02-08T03:25:54.360Z,1.67
2024-02-08T03:31:52.023Z,1.66
2024-02-08T03:37:07.859Z,1.64
2024-02-08T03:42:47.748Z,1.66
2024-02-08T03:48:11.484Z,1.70
2024-02-08T03:53:14.386Z,1.73
2024-02-08T03:59:10.801Z,1.76
2024-02-08T04:04:13.187Z,1.81
2024-02-08T04:09:34.414Z,1.80
2024-02-08T04:15:35.398Z,1.82
2024-02-08T04:21:16.719Z,1.77
2024-02-08T04:26:39.942Z,1.71
2024-02-08T04:32:00.499Z,1.65
2024-02-08T04:37:21.288Z,1.64
2024-02-08T04:42:41.755Z,1.61
2024-02-08T04:48:02.662Z,1.57
2024-02-08T04:53:23.508Z,1.54
2024-02-08T04:58:47.575Z,1.54
2024-02-08T05:03:49.629Z,1.50
2024-02-08T05:08:58.096Z,1.48
2024-02-08T05:14:03.393Z,1.48
2024-02-08T05:19:11.273Z,1.48
2024-02-08T05:24:15.159Z,1.46
2024-02-08T05:29:22.831Z,1.41
2024-02-08T05:34:40.321Z,1.42
2024-02-08T05:39:44.563Z,1.40
2024-02-08T05:44:56.756Z,1.42
2024-02-08T05:50:01.010Z,1.43
2024-02-08T05:55:04.383Z,1.45
2024-02-08T06:00:27.422Z,1.48
2024-02-08T06:05:31.716Z,1.46
2024-02-08T06:10:42.862Z,1.38
2024-02-08T06:15:47.652Z,1.32
2024-02-08T06:21:00.101Z,1.29
2024-02-08T06:26:32.666Z,1.32
2024-02-08T06:31:51.336Z,1.39
2024-02-08T06:37:02.751Z,1.36
2024-02-08T06:42:23.932Z,1.34
2024-02-08T06:47:51.932Z,1.38
2024-02-08T06:53:15.100Z,1.37
2024-02-08T06:58:55.813Z,1.43
2024-02-08T07:04:26.912Z,1.48
2024-02-08T07:09:47.629Z,1.53
2024-02-08T07:15:08.345Z,1.58
2024-02-08T07:20:56.785Z,1.62
2024-02-08T07:26:33.765Z,1.70
2024-02-08T07:31:55.079Z,1.75
2024-02-08T07:37:25.785Z,1.80
2024-02-08T07:42:33.016Z,1.85
2024-02-08T07:47:57.883Z,1.87
2024-02-08T07:53:20.363Z,1.91
2024-02-08T07:58:27.859Z,1.96
2024-02-08T08:03:35.996Z,2.00
2024-02-08T08:08:58.156Z,2.02
2024-02-08T08:14:41.247Z,2.03
2024-02-08T08:19:47.362Z,2.07
2024-02-08T08:25:28.884Z,2.09
2024-02-08T08:30:47.329Z,2.12
2024-02-08T08:35:54.547Z,2.19
2024-02-08T08:41:07.517Z,2.27
2024-02-08T08:46:19.409Z,2.33
2024-02-08T08:51:30.719Z,2.35
2024-02-08T08:56:35.120Z,2.38
2024-02-08T09:01:40.694Z,2.39
2024-02-08T09:06:53.519Z,2.42
2024-02-08T09:11:58.319Z,2.53
2024-02-08T09:17:23.614Z,2.63
2024-02-08T09:22:33.491Z,2.70
2024-02-08T09:27:39.090Z,2.79
2024-02-08T09:32:50.636Z,2.90
2024-02-08T09:37:52.828Z,3.00
2024-02-08T09:42:58.059Z,3.08
2024-02-08T09:48:15.001Z,3.15
2024-02-08T09:53:30.668Z,3.16
2024-02-08T09:58:38.634Z,3.19
2024-02-08T10:03:47.182Z,3.25
2024-02-08T10:08:55.033Z,3.30
2024-02-08T10:14:02.279Z,3.29
2024-02-08T10:19:05.213Z,3.27
2024-02-08T10:24:28.967Z,3.28
2024-02-08T10:29:32.426Z,3.32
2024-02-08T10:34:40.583Z,3.33
2024-02-08T10:39:58.487Z,3.34
2024-02-08T10:45:05.994Z,3.35
2024-02-08T10:50:20.309Z,3.38
2024-02-08T10:55:31.085Z,3.38
2024-02-08T11:01:01.492Z,3.37
2024-02-08T11:06:05.338Z,3.40
2024-02-08T11:11:14.186Z,3.38
2024-02-08T11:17:12.100Z,3.43
2024-02-08T11:22:40.703Z,3.45
2024-02-08T11:27:42.681Z,3.48
2024-02-08T11:32:58.929Z,3.53
2024-02-08T11:38:25.138Z,3.53
2024-02-08T11:43:29.618Z,3.57
2024-02-08T11:48:42.272Z,3.58
2024-02-08T11:54:02.599Z,3.59
2024-02-08T11:59:09.363Z,3.62
2024-02-08T12:04:34.994Z,3.66
2024-02-08T12:09:39.185Z,3.68
2024-02-08T12:14:42.008Z,3.72
2024-02-08T12:19:44.971Z,3.73
2024-02-08T12:25:01.356Z,3.73
2024-02-08T12:30:05.056Z,3.72
2024-02-08T12:35:13.392Z,3.68
2024-02-08T12:40:19.396Z,3.69
2024-02-08T12:45:21.673Z,3.69
2024-02-08T12:50:28.806Z,3.71
2024-02-08T12:55:33.007Z,3.72
2024-02-08T13:00:35.793Z,3.74
2024-02-08T13:05:40.440Z,3.73
2024-02-08T13:10:42.899Z,3.73
2024-02-08T13:15:45.077Z,3.71
2024-02-08T13:20:48.016Z,3.64
2024-02-08T13:25:57.101Z,3.64
2024-02-08T13:31:09.248Z,3.66
2024-02-08T13:36:12.294Z,3.68
2024-02-08T13:41:14.345Z,3.72
2024-02-08T13:46:16.722Z,3.71
2024-02-08T13:51:18.989Z,3.69
2024-02-08T13:56:20.995Z,3.67
2024-02-08T14:01:26.080Z,3.67
2024-02-08T14:06:30.514Z,3.67
2024-02-08T14:11:41.506Z,3.65
2024-02-08T14:16:52.635Z,3.60
2024-02-08T14:21:59.597Z,3.52
2024-02-08T14:27:05.671Z,3.45
2024-02-08T14:32:20.870Z,3.38
2024-02-08T14:37:30.715Z,3.33
2024-02-08T14:42:37.915Z,3.33
2024-02-08T14:47:52.492Z,3.34
2024-02-08T14:52:57.125Z,3.35
2024-02-08T14:57:59.407Z,3.34
2024-02-08T15:03:08.558Z,3.32
2024-02-08T15:08:22.528Z,3.28
2024-02-08T15:13:25.009Z,3.26
2024-02-08T15:18:39.646Z,3.22
2024-02-08T15:24:10.328Z,3.20
2024-02-08T15:29:42.541Z,3.19
2024-02-08T15:34:58.359Z,3.16
2024-02-08T15:40:14.839Z,3.12
2024-02-08T15:45:28.179Z,3.10
2024-02-08T15:50:36.893Z,3.09
2024-02-08T15:55:43.211Z,3.03
2024-02-08T16:01:39.357Z,2.92
2024-02-08T16:06:57.630Z,2.86
2024-02-08T16:12:23.305Z,2.81
2024-02-08T16:17:32.391Z,2.81
2024-02-08T16:22:59.048Z,2.78
2024-02-08T16:28:13.449Z,2.71
2024-02-08T16:33:20.434Z,2.66
2024-02-08T16:38:28.292Z,2.56
2024-02-08T16:43:44.500Z,2.57
2024-02-08T16:48:48.792Z,2.61
2024-02-08T16:54:11.530Z,2.59
2024-02-08T16:59:28.243Z,2.57
2024-02-08T17:04:48.546Z,2.55
2024-02-08T17:10:07.453Z,2.58
2024-02-08T17:15:27.682Z,2.63
2024-02-08T17:20:38.785Z,2.64
2024-02-08T17:25:44.400Z,2.63
2024-02-08T17:31:03.202Z,2.62
2024-02-08T17:36:15.155Z,2.62
2024-02-08T17:41:19.222Z,2.62
2024-02-08T17:46:25.248Z,2.62
2024-02-08T17:51:57.592Z,2.60
2024-02-08T17:57:03.764Z,2.58
2024-02-08T18:02:06.716Z,2.57
2024-02-08T18:07:13.783Z,2.53
2024-02-08T18:12:34.784Z,2.50
2024-02-08T18:17:44.960Z,2.49
2024-02-08T18:22:50.154Z,2.48
2024-02-08T18:27:54.440Z,2.46
2024-02-08T18:33:04.242Z,2.45
2024-02-08T18:38:15.284Z,2.44
2024-02-08T18:43:17.636Z,2.44
2024-02-08T18:48:24.170Z,2.45
2024-02-08T18:53:30.255Z,2.46
2024-02-08T18:58:35.228Z,2.44
2024-02-08T19:03:41.080Z,2.43
2024-02-08T19:08:44.560Z,2.42
2024-02-08T19:13:52.248Z,2.44
2024-02-08T19:19:04.060Z,2.45
2024-02-08T19:24:16.128Z,2.43
2024-02-08T19:29:24.756Z,2.40
2024-02-08T19:34:29.965Z,2.36
2024-02-08T19:40:11.581Z,2.32
2024-02-08T19:45:23.883Z,2.31
2024-02-08T19:51:02.010Z,2.28
2024-02-08T19:56:08.032Z,2.26
2024-02-08T20:01:21.716Z,2.26
2024-02-08T20:06:35.949Z,2.22
2024-02-08T20:11:41.235Z,2.17
2024-02-08T20:16:46.299Z,2.16
2024-02-08T20:21:52.015Z,2.14
2024-02-08T20:26:54.472Z,2.14
2024-02-08T20:31:57.477Z,2.13
2024-02-08T20:37:03.157Z,2.12
2024-02-08T20:42:12.714Z,2.11
2024-02-08T20:47:15.275Z,2.12
2024-02-08T20:52:20.689Z,2.13
2024-02-08T20:57:24.014Z,2.16
2024-02-08T21:02:28.969Z,2.17
2024-02-08T21:07:31.147Z,2.16
2024-02-08T21:12:34.487Z,2.15
2024-02-08T21:17:46.069Z,2.13
2024-02-08T21:22:50.879Z,2.15
2024-02-08T21:27:53.873Z,2.16
2024-02-08T21:32:59.368Z,2.17
2024-02-08T21:38:05.530Z,2.18
2024-02-08T21:43:22.045Z,2.20
2024-02-08T21:48:31.879Z,2.18
2024-02-08T21:53:36.040Z,2.20
2024-02-08T21:58:38.213Z,2.22
2024-02-08T22:03:40.829Z,2.22
2024-02-08T22:08:43.087Z,2.22
2024-02-08T22:13:47.857Z,2.23
2024-02-08T22:18:50.474Z,2.23
2024-02-08T22:23:52.748Z,2.23
2024-02-08T22:28:55.085Z,2.20
2024-02-08T22:33:58.225Z,2.21
2024-02-08T22:39:01.648Z,2.22
2024-02-08T22:44:06.833Z,2.23
2024-02-08T22:49:10.819Z,2.24
2024-02-08T22:54:43.528Z,2.22
2024-02-08T22:59:47.067Z,2.22
2024-02-08T23:04:52.194Z,2.21
2024-02-08T23:10:00.623Z,2.18
2024-02-08T23:15:23.133Z,2.21
2024-02-08T23:20:25.711Z,2.21
2024-02-08T23:25:28.867Z,2.23
2024-02-08T23:30:37.521Z,2.20
2024-02-08T23:35:41.156Z,2.20
2024-02-08T23:40:51.206Z,2.21
2024-02-08T23:45:54.928Z,2.21
2024-02-08T23:50:57.879Z,2.21
2024-02-08T23:56:00.671Z,2.21
